Wetterdaten: Woche 09.03.15 - 15.03.15 (KW11)
Datum Zeit Temp. Aussen +5cm Feuchte Auss Luftdruck Regen Sonnenschein Regendauer Solar Windben
09.03.2015 00:00 6,4 C 3,2 C 85 % 1024,7 hPa 0,0 l/m 0,00 h 0,00 h 0 W/m 3,8 km/h (1 Bft)
09.03.2015 01:00 5,9 C 4,5 C 90 % 1025,1 hPa 0,0 l/m 0,00 h 0,00 h 0 W/m 5,7 km/h (1 Bft)
09.03.2015 02:00 6,6 C 5,8 C 93 % 1025,4 hPa 0,0 l/m 0,00 h 0,00 h 0 W/m 5,5 km/h (1 Bft)
09.03.2015 03:00 7,2 C 6,1 C 94 % 1025,4 hPa 0,0 l/m 0,00 h 0,00 h 0 W/m 6,7 km/h (2 Bft)
09.03.2015 04:00 7,7 C 6,2 C 94 % 1025,9 hPa 0,0 l/m 0,00 h 0,17 h 0 W/m 9,0 km/h (2 Bft)
09.03.2015 05:00 7,9 C 6,4 C 95 % 1026,3 hPa 0,0 l/m 0,00 h 0,40 h 0 W/m 9,3 km/h (2 Bft)
09.03.2015 06:00 8,0 C 6,7 C 96 % 1026,3 hPa 0,0 l/m 0,00 h 0,00 h 0 W/m 8,3 km/h (2 Bft)
09.03.2015 07:00 7,9 C 6,7 C 97 % 1026,4 hPa 0,0 l/m 0,00 h 0,00 h 11 W/m 7,3 km/h (2 Bft)
09.03.2015 08:00 7,9 C 6,8 C 97 % 1026,7 hPa 0,0 l/m 0,00 h 0,00 h 31 W/m 5,6 km/h (1 Bft)
09.03.2015 09:00 8,2 C 7,4 C 97 % 1026,9 hPa 0,0 l/m 0,00 h 0,00 h 72 W/m 9,7 km/h (2 Bft)
09.03.2015 10:00 8,4 C 7,8 C 98 % 1027,1 hPa 0,0 l/m 0,00 h 0,00 h 61 W/m 10,2 km/h (2 Bft)
09.03.2015 11:00 8,6 C 8,0 C 97 % 1027,2 hPa 0,0 l/m 0,00 h 0,00 h 90 W/m 8,0 km/h (2 Bft)
09.03.2015 12:00 9,2 C 9,2 C 96 % 1027,0 hPa 0,0 l/m 0,00 h 0,00 h 145 W/m 6,8 km/h (2 Bft)
09.03.2015 13:00 9,7 C 9,6 C 94 % 1026,6 hPa 0,0 l/m 0,03 h 0,00 h 153 W/m 4,5 km/h (1 Bft)
09.03.2015 14:00 10,3 C 9,8 C 91 % 1026,2 hPa 0,0 l/m 0,00 h 0,00 h 120 W/m 4,2 km/h (1 Bft)
09.03.2015 15:00 10,6 C 10,3 C 88 % 1025,9 hPa 0,0 l/m 0,47 h 0,00 h 212 W/m 5,5 km/h (1 Bft)
09.03.2015 16:00 12,0 C 10,5 C 81 % 1025,2 hPa 0,0 l/m 0,57 h 0,00 h 142 W/m 7,5 km/h (2 Bft)
09.03.2015 17:00 11,2 C 9,0 C 81 % 1024,7 hPa 0,0 l/m 0,87 h 0,00 h 67 W/m 7,3 km/h (2 Bft)
09.03.2015 18:00 10,3 C 6,8 C 82 % 1024,6 hPa 0,0 l/m 0,28 h 0,00 h 20 W/m 2,7 km/h (1 Bft)
09.03.2015 19:00 8,4 C 4,5 C 85 % 1024,9 hPa 0,0 l/m 0,00 h 0,00 h 0 W/m 1,9 km/h (1 Bft)
09.03.2015 20:00 6,8 C 3,4 C 88 % 1024,5 hPa 0,0 l/m 0,00 h 0,00 h 0 W/m 2,4 km/h (1 Bft)
09.03.2015 21:00 5,5 C 2,8 C 90 % 1024,3 hPa 0,0 l/m 0,00 h 0,00 h 0 W/m 2,0 km/h (1 Bft)
09.03.2015 22:00 4,9 C 2,9 C 91 % 1024,2 hPa 0,0 l/m 0,00 h 0,00 h 0 W/m 3,8 km/h (1 Bft)
09.03.2015 23:00 5,5 C 4,0 C 94 % 1023,9 hPa 0,2 l/m 0,00 h 0,00 h 0 W/m 5,0 km/h (1 Bft)
10.03.2015 00:00 5,7 C 3,9 C 95 % 1024,3 hPa 0,0 l/m 0,00 h 0,00 h 0 W/m 3,3 km/h (1 Bft)
10.03.2015 01:00 5,6 C 3,2 C 96 % 1024,7 hPa 0,0 l/m 0,00 h 0,00 h 0 W/m 4,1 km/h (1 Bft)
10.03.2015 02:00 5,1 C 3,2 C 96 % 1024,9 hPa 0,0 l/m 0,00 h 0,00 h 0 W/m 4,3 km/h (1 Bft)
10.03.2015 03:00 5,7 C 4,3 C 97 % 1024,6 hPa 0,2 l/m 0,00 h 0,37 h 0 W/m 6,4 km/h (2 Bft)
10.03.2015 04:00 6,5 C 5,4 C 97 % 1024,5 hPa 0,0 l/m 0,00 h 0,48 h 0 W/m 6,4 km/h (2 Bft)
10.03.2015 05:00 7,0 C 5,7 C 98 % 1024,9 hPa 0,0 l/m 0,00 h 0,00 h 0 W/m 8,4 km/h (2 Bft)
10.03.2015 06:00 7,4 C 6,1 C 98 % 1025,2 hPa 0,0 l/m 0,00 h 0,50 h 0 W/m 9,1 km/h (2 Bft)
10.03.2015 07:00 7,7 C 6,4 C 98 % 1025,7 hPa 0,4 l/m 0,00 h 0,63 h 7 W/m 6,7 km/h (2 Bft)
10.03.2015 08:00 8,0 C 6,7 C 98 % 1026,3 hPa 0,0 l/m 0,00 h 0,03 h 17 W/m 7,8 km/h (2 Bft)
10.03.2015 09:00 8,3 C 7,3 C 98 % 1026,9 hPa 0,2 l/m 0,00 h 0,50 h 43 W/m 8,9 km/h (2 Bft)
10.03.2015 10:00 9,0 C 8,6 C 99 % 1027,1 hPa 0,0 l/m 0,33 h 0,00 h 188 W/m 12,2 km/h (2 Bft)
10.03.2015 11:00 9,6 C 9,3 C 99 % 1027,3 hPa 0,0 l/m 0,43 h 0,00 h 236 W/m 12,1 km/h (2 Bft)
10.03.2015 12:00 10,8 C 9,5 C 93 % 1027,6 hPa 0,0 l/m 0,50 h 0,00 h 303 W/m 11,6 km/h (2 Bft)
10.03.2015 13:00 12,2 C 10,4 C 79 % 1027,4 hPa 0,0 l/m 0,70 h 0,00 h 437 W/m 13,5 km/h (3 Bft)
10.03.2015 14:00 12,4 C 11,6 C 76 % 1027,4 hPa 0,0 l/m 0,53 h 0,00 h 294 W/m 14,4 km/h (3 Bft)
10.03.2015 15:00 13,1 C 12,0 C 67 % 1027,5 hPa 0,2 l/m 1,00 h 0,00 h 395 W/m 20,3 km/h (4 Bft)
10.03.2015 16:00 12,9 C 10,8 C 60 % 1027,4 hPa 0,0 l/m 0,90 h 0,00 h 202 W/m 18,8 km/h (3 Bft)
10.03.2015 17:00 11,9 C 9,3 C 63 % 1027,7 hPa 0,0 l/m 0,37 h 0,00 h 53 W/m 13,8 km/h (3 Bft)
10.03.2015 18:00 10,3 C 8,0 C 69 % 1028,1 hPa 0,0 l/m 0,23 h 0,00 h 14 W/m 17,1 km/h (3 Bft)
10.03.2015 19:00 8,6 C 6,6 C 77 % 1028,8 hPa 0,0 l/m 0,00 h 0,00 h 0 W/m 12,4 km/h (3 Bft)
10.03.2015 20:00 7,3 C 4,1 C 79 % 1029,3 hPa 0,0 l/m 0,00 h 0,00 h 0 W/m 6,2 km/h (2 Bft)
10.03.2015 21:00 5,6 C 2,8 C 83 % 1029,7 hPa 0,0 l/m 0,00 h 0,00 h 0 W/m 8,0 km/h (2 Bft)
10.03.2015 22:00 5,1 C 3,5 C 85 % 1030,3 hPa 0,0 l/m 0,00 h 0,00 h 0 W/m 13,3 km/h (3 Bft)
10.03.2015 23:00 4,4 C 1,8 C 85 % 1030,4 hPa 0,0 l/m 0,00 h 0,00 h 0 W/m 6,4 km/h (2 Bft)
11.03.2015 00:00 3,0 C 0,0 C 86 % 1030,5 hPa 0,0 l/m 0,00 h 0,00 h 0 W/m 3,7 km/h (1 Bft)
11.03.2015 01:00 1,8 C -0,9 C 87 % 1030,6 hPa 0,0 l/m 0,00 h 0,00 h 0 W/m 3,8 km/h (1 Bft)
11.03.2015 02:00 1,0 C -1,4 C 89 % 1030,5 hPa 0,0 l/m 0,00 h 0,00 h 0 W/m 3,9 km/h (1 Bft)
11.03.2015 03:00 0,5 C -1,7 C 90 % 1030,5 hPa 0,0 l/m 0,00 h 0,00 h 0 W/m 3,0 km/h (1 Bft)
11.03.2015 04:00 0,0 C -2,1 C 91 % 1030,5 hPa 0,0 l/m 0,00 h 0,00 h 0 W/m 2,3 km/h (1 Bft)
11.03.2015 05:00 -0,5 C -2,2 C 91 % 1030,8 hPa 0,0 l/m 0,00 h 0,00 h 0 W/m 2,7 km/h (1 Bft)
11.03.2015 06:00 0,0 C -0,3 C 93 % 1031,2 hPa 0,0 l/m 0,00 h 0,00 h 0 W/m 5,2 km/h (1 Bft)
11.03.2015 07:00 1,1 C 0,9 C 95 % 1031,3 hPa 0,0 l/m 0,00 h 0,00 h 19 W/m 5,0 km/h (1 Bft)
11.03.2015 08:00 2,1 C 1,5 C 96 % 1031,7 hPa 0,0 l/m 0,00 h 0,00 h 58 W/m 6,7 km/h (2 Bft)
11.03.2015 09:00 2,8 C 3,1 C 97 % 1032,0 hPa 0,0 l/m 0,00 h 0,00 h 111 W/m 5,3 km/h (1 Bft)
11.03.2015 10:00 3,5 C 4,4 C 97 % 1031,8 hPa 0,0 l/m 0,27 h 0,00 h 191 W/m 6,6 km/h (2 Bft)
11.03.2015 11:00 4,8 C 5,1 C 96 % 1031,4 hPa 0,0 l/m 0,87 h 0,00 h 480 W/m 7,3 km/h (2 Bft)
11.03.2015 12:00 8,2 C 7,0 C 77 % 1031,0 hPa 0,0 l/m 0,97 h 0,00 h 605 W/m 11,3 km/h (2 Bft)
11.03.2015 13:00 10,1 C 8,0 C 64 % 1030,4 hPa 0,0 l/m 1,00 h 0,00 h 576 W/m 11,0 km/h (2 Bft)
11.03.2015 14:00 10,4 C 10,1 C 63 % 1030,1 hPa 0,0 l/m 1,00 h 0,00 h 516 W/m 9,1 km/h (2 Bft)
11.03.2015 15:00 10,8 C 9,1 C 62 % 1029,8 hPa 0,0 l/m 1,00 h 0,00 h 399 W/m 11,1 km/h (2 Bft)
11.03.2015 16:00 10,3 C 8,1 C 65 % 1029,4 hPa 0,0 l/m 1,00 h 0,00 h 237 W/m 10,8 km/h (2 Bft)
11.03.2015 17:00 9,4 C 7,3 C 70 % 1029,5 hPa 0,0 l/m 0,63 h 0,00 h 74 W/m 10,5 km/h (2 Bft)
11.03.2015 18:00 8,2 C 4,7 C 74 % 1029,9 hPa 0,0 l/m 0,17 h 0,00 h 12 W/m 7,2 km/h (2 Bft)
11.03.2015 19:00 6,3 C 3,2 C 81 % 1030,2 hPa 0,0 l/m 0,00 h 0,00 h 0 W/m 6,9 km/h (2 Bft)
11.03.2015 20:00 4,9 C 1,7 C 84 % 1030,2 hPa 0,0 l/m 0,00 h 0,00 h 0 W/m 4,5 km/h (1 Bft)
11.03.2015 21:00 3,2 C 0,2 C 85 % 1030,2 hPa 0,0 l/m 0,00 h 0,00 h 0 W/m 3,6 km/h (1 Bft)
11.03.2015 22:00 2,1 C -0,6 C 87 % 1030,4 hPa 0,0 l/m 0,00 h 0,00 h 0 W/m 1,1 km/h (1 Bft)
11.03.2015 23:00 1,2 C -1,3 C 89 % 1030,9 hPa 0,0 l/m 0,00 h 0,00 h 0 W/m 3,1 km/h (1 Bft)
12.03.2015 00:00 0,4 C -1,8 C 90 % 1030,8 hPa 0,0 l/m 0,00 h 0,00 h 0 W/m 0,7 km/h (0 Bft)
12.03.2015 01:00 -0,4 C -2,3 C 91 % 1030,9 hPa 0,0 l/m 0,00 h 0,00 h 0 W/m 1,5 km/h (1 Bft)
12.03.2015 02:00 -1,0 C -2,8 C 91 % 1030,9 hPa 0,0 l/m 0,00 h 0,00 h 0 W/m 1,5 km/h (1 Bft)
12.03.2015 03:00 -1,3 C -2,9 C 92 % 1031,1 hPa 0,0 l/m 0,00 h 0,00 h 0 W/m 0,9 km/h (0 Bft)
12.03.2015 04:00 -1,5 C -3,0 C 92 % 1031,4 hPa 0,0 l/m 0,00 h 0,00 h 0 W/m 2,0 km/h (1 Bft)
12.03.2015 05:00 -1,9 C -3,3 C 93 % 1031,4 hPa 0,0 l/m 0,00 h 0,00 h 0 W/m 1,9 km/h (1 Bft)
12.03.2015 06:00 -2,2 C -3,7 C 93 % 1031,1 hPa 0,0 l/m 0,00 h 0,00 h 6 W/m 2,0 km/h (1 Bft)
12.03.2015 07:00 -2,5 C -3,3 C 93 % 1031,4 hPa 0,0 l/m 0,87 h 0,00 h 52 W/m 2,2 km/h (1 Bft)
12.03.2015 08:00 -1,1 C -1,7 C 95 % 1031,6 hPa 0,0 l/m 1,00 h 0,00 h 201 W/m 3,6 km/h (1 Bft)
12.03.2015 09:00 3,0 C 1,3 C 97 % 1031,7 hPa 0,0 l/m 1,00 h 0,00 h 364 W/m 4,6 km/h (1 Bft)
12.03.2015 10:00 6,9 C 5,1 C 91 % 1031,3 hPa 0,0 l/m 1,00 h 0,00 h 494 W/m 11,5 km/h (2 Bft)
12.03.2015 11:00 10,1 C 7,8 C 71 % 1030,8 hPa 0,0 l/m 1,00 h 0,00 h 578 W/m 15,1 km/h (3 Bft)
12.03.2015 12:00 11,9 C 9,3 C 63 % 1030,2 hPa 0,0 l/m 0,97 h 0,00 h 601 W/m 12,2 km/h (2 Bft)
12.03.2015 13:00 13,5 C 10,4 C 56 % 1029,5 hPa 0,0 l/m 1,00 h 0,00 h 582 W/m 13,9 km/h (3 Bft)
12.03.2015 14:00 14,1 C 13,4 C 55 % 1028,7 hPa 0,0 l/m 1,00 h 0,00 h 514 W/m 14,9 km/h (3 Bft)
12.03.2015 15:00 13,8 C 12,1 C 55 % 1028,0 hPa 0,0 l/m 1,00 h 0,00 h 397 W/m 10,1 km/h (2 Bft)
12.03.2015 16:00 13,2 C 11,0 C 57 % 1027,5 hPa 0,0 l/m 1,00 h 0,00 h 244 W/m 17,5 km/h (3 Bft)
12.03.2015 17:00 11,8 C 9,2 C 61 % 1026,9 hPa 0,0 l/m 0,63 h 0,00 h 78 W/m 19,2 km/h (3 Bft)
12.03.2015 18:00 10,4 C 6,9 C 66 % 1026,8 hPa 0,0 l/m 0,23 h 0,00 h 14 W/m 14,7 km/h (3 Bft)
12.03.2015 19:00 8,9 C 5,0 C 70 % 1027,0 hPa 0,0 l/m 0,00 h 0,00 h 0 W/m 10,6 km/h (2 Bft)
12.03.2015 20:00 7,4 C 3,9 C 73 % 1027,0 hPa 0,0 l/m 0,00 h 0,00 h 0 W/m 12,6 km/h (3 Bft)
12.03.2015 21:00 6,7 C 4,0 C 74 % 1026,8 hPa 0,0 l/m 0,00 h 0,00 h 0 W/m 15,7 km/h (3 Bft)
12.03.2015 22:00 6,5 C 4,0 C 74 % 1026,4 hPa 0,0 l/m 0,00 h 0,00 h 0 W/m 14,7 km/h (3 Bft)
12.03.2015 23:00 5,3 C 1,7 C 76 % 1026,1 hPa 0,0 l/m 0,00 h 0,00 h 0 W/m 3,6 km/h (1 Bft)
13.03.2015 00:00 3,4 C 0,2 C 79 % 1025,8 hPa 0,0 l/m 0,00 h 0,00 h 0 W/m 3,0 km/h (1 Bft)
13.03.2015 01:00 2,1 C -0,4 C 83 % 1025,8 hPa 0,0 l/m 0,00 h 0,00 h 0 W/m 5,5 km/h (1 Bft)
13.03.2015 02:00 1,3 C -1,0 C 86 % 1025,5 hPa 0,0 l/m 0,00 h 0,00 h 0 W/m 4,8 km/h (1 Bft)
13.03.2015 03:00 1,3 C -0,3 C 89 % 1025,4 hPa 0,0 l/m 0,00 h 0,00 h 0 W/m 12,4 km/h (3 Bft)
13.03.2015 04:00 2,0 C 0,1 C 89 % 1025,4 hPa 0,0 l/m 0,00 h 0,00 h 0 W/m 10,6 km/h (2 Bft)
13.03.2015 05:00 1,4 C -1,0 C 87 % 1025,3 hPa 0,0 l/m 0,00 h 0,00 h 0 W/m 7,8 km/h (2 Bft)
13.03.2015 06:00 0,6 C -1,7 C 88 % 1025,1 hPa 0,0 l/m 0,00 h 0,00 h 6 W/m 6,3 km/h (2 Bft)
13.03.2015 07:00 0,3 C -1,2 C 90 % 1025,0 hPa 0,0 l/m 0,90 h 0,00 h 48 W/m 9,5 km/h (2 Bft)
13.03.2015 08:00 1,5 C 0,8 C 91 % 1025,1 hPa 0,0 l/m 1,00 h 0,00 h 198 W/m 16,4 km/h (3 Bft)
13.03.2015 09:00 3,9 C 2,7 C 85 % 1025,0 hPa 0,0 l/m 1,00 h 0,00 h 357 W/m 16,6 km/h (3 Bft)
13.03.2015 10:00 6,9 C 5,3 C 72 % 1024,6 hPa 0,0 l/m 1,00 h 0,00 h 489 W/m 17,1 km/h (3 Bft)
13.03.2015 11:00 8,4 C 6,7 C 66 % 1024,4 hPa 0,0 l/m 1,00 h 0,00 h 435 W/m 16,8 km/h (3 Bft)
13.03.2015 12:00 8,2 C 8,1 C 66 % 1024,0 hPa 0,0 l/m 0,33 h 0,00 h 273 W/m 13,6 km/h (3 Bft)
13.03.2015 13:00 8,2 C 8,3 C 66 % 1023,4 hPa 0,0 l/m 0,00 h 0,00 h 224 W/m 17,8 km/h (3 Bft)
13.03.2015 14:00 9,3 C 10,7 C 60 % 1022,9 hPa 0,0 l/m 1,00 h 0,00 h 395 W/m 17,1 km/h (3 Bft)
13.03.2015 15:00 9,5 C 9,3 C 57 % 1022,7 hPa 0,0 l/m 0,90 h 0,00 h 232 W/m 18,7 km/h (3 Bft)
13.03.2015 16:00 9,7 C 8,2 C 54 % 1022,6 hPa 0,0 l/m 0,87 h 0,00 h 218 W/m 23,6 km/h (4 Bft)
13.03.2015 17:00 8,7 C 6,8 C 55 % 1022,8 hPa 0,0 l/m 0,63 h 0,00 h 71 W/m 20,8 km/h (4 Bft)
13.03.2015 18:00 7,4 C 5,3 C 59 % 1023,3 hPa 0,0 l/m 0,20 h 0,00 h 16 W/m 15,1 km/h (3 Bft)
13.03.2015 19:00 6,8 C 5,0 C 60 % 1023,8 hPa 0,0 l/m 0,00 h 0,00 h 0 W/m 13,2 km/h (3 Bft)
13.03.2015 20:00 6,5 C 5,0 C 58 % 1024,1 hPa 0,0 l/m 0,00 h 0,00 h 0 W/m 18,1 km/h (3 Bft)
13.03.2015 21:00 6,3 C 4,6 C 59 % 1024,4 hPa 0,0 l/m 0,00 h 0,00 h 0 W/m 18,9 km/h (3 Bft)
13.03.2015 22:00 5,6 C 3,9 C 62 % 1024,9 hPa 0,0 l/m 0,00 h 0,00 h 0 W/m 23,7 km/h (4 Bft)
13.03.2015 23:00 4,6 C 2,3 C 66 % 1025,2 hPa 0,0 l/m 0,00 h 0,00 h 0 W/m 13,9 km/h (3 Bft)
14.03.2015 00:00 3,2 C 0,8 C 69 % 1025,3 hPa 0,0 l/m 0,00 h 0,00 h 0 W/m 10,8 km/h (2 Bft)
14.03.2015 01:00 2,2 C 0,1 C 75 % 1025,2 hPa 0,0 l/m 0,00 h 0,00 h 0 W/m 12,1 km/h (2 Bft)
14.03.2015 02:00 2,0 C 0,3 C 81 % 1025,4 hPa 0,0 l/m 0,00 h 0,00 h 0 W/m 12,7 km/h (3 Bft)
14.03.2015 03:00 1,5 C -0,6 C 83 % 1025,4 hPa 0,0 l/m 0,00 h 0,00 h 0 W/m 10,4 km/h (2 Bft)
14.03.2015 04:00 1,3 C -0,5 C 86 % 1025,6 hPa 0,0 l/m 0,00 h 0,00 h 0 W/m 9,5 km/h (2 Bft)
14.03.2015 05:00 1,0 C -1,3 C 86 % 1026,2 hPa 0,0 l/m 0,00 h 0,00 h 0 W/m 5,1 km/h (1 Bft)
14.03.2015 06:00 0,1 C -2,1 C 86 % 1026,5 hPa 0,0 l/m 0,00 h 0,00 h 6 W/m 4,6 km/h (1 Bft)
14.03.2015 07:00 -0,6 C -2,1 C 86 % 1026,8 hPa 0,0 l/m 0,33 h 0,00 h 37 W/m 2,5 km/h (1 Bft)
14.03.2015 08:00 -0,4 C -0,2 C 89 % 1027,0 hPa 0,0 l/m 0,10 h 0,00 h 81 W/m 2,6 km/h (1 Bft)
14.03.2015 09:00 1,7 C 2,7 C 92 % 1027,2 hPa 0,0 l/m 0,03 h 0,00 h 131 W/m 8,4 km/h (2 Bft)
14.03.2015 10:00 4,4 C 4,4 C 87 % 1027,1 hPa 0,0 l/m 0,70 h 0,00 h 239 W/m 14,7 km/h (3 Bft)
14.03.2015 11:00 5,9 C 6,1 C 82 % 1026,9 hPa 0,0 l/m 0,23 h 0,00 h 210 W/m 20,2 km/h (4 Bft)
14.03.2015 12:00 6,3 C 6,6 C 79 % 1026,6 hPa 0,0 l/m 0,17 h 0,00 h 214 W/m 20,4 km/h (4 Bft)
14.03.2015 13:00 6,5 C 6,8 C 79 % 1026,2 hPa 0,0 l/m 0,43 h 0,00 h 243 W/m 22,1 km/h (4 Bft)
14.03.2015 14:00 6,3 C 5,8 C 79 % 1026,1 hPa 0,0 l/m 0,00 h 0,00 h 117 W/m 21,4 km/h (4 Bft)
14.03.2015 15:00 5,3 C 4,5 C 81 % 1026,3 hPa 0,0 l/m 0,00 h 0,00 h 52 W/m 24,2 km/h (4 Bft)
14.03.2015 16:00 4,9 C 3,9 C 84 % 1026,5 hPa 0,0 l/m 0,00 h 0,00 h 50 W/m 21,0 km/h (4 Bft)
14.03.2015 17:00 4,7 C 3,8 C 85 % 1026,6 hPa 0,0 l/m 0,00 h 0,00 h 20 W/m 16,1 km/h (3 Bft)
14.03.2015 18:00 4,4 C 2,6 C 87 % 1027,1 hPa 0,2 l/m 0,00 h 0,73 h 7 W/m 18,6 km/h (3 Bft)
14.03.2015 19:00 3,8 C 2,2 C 91 % 1027,4 hPa 0,2 l/m 0,00 h 0,73 h 0 W/m 15,5 km/h (3 Bft)
14.03.2015 20:00 3,5 C 2,1 C 93 % 1027,4 hPa 0,0 l/m 0,00 h 0,00 h 0 W/m 13,7 km/h (3 Bft)
14.03.2015 21:00 3,6 C 2,2 C 94 % 1027,5 hPa 0,0 l/m 0,00 h 0,03 h 0 W/m 13,8 km/h (3 Bft)
14.03.2015 22:00 3,7 C 2,2 C 94 % 1027,4 hPa 0,0 l/m 0,00 h 0,00 h 0 W/m 16,9 km/h (3 Bft)
14.03.2015 23:00 3,8 C 2,2 C 93 % 1027,4 hPa 0,0 l/m 0,00 h 0,00 h 0 W/m 15,0 km/h (3 Bft)
15.03.2015 00:00 3,9 C 2,8 C 93 % 1027,3 hPa 0,0 l/m 0,00 h 0,00 h 0 W/m 12,3 km/h (3 Bft)
15.03.2015 01:00 4,0 C 2,8 C 93 % 1027,2 hPa 0,0 l/m 0,00 h 0,00 h 0 W/m 16,2 km/h (3 Bft)
15.03.2015 02:00 4,2 C 2,8 C 93 % 1026,9 hPa 0,0 l/m 0,00 h 0,00 h 0 W/m 18,9 km/h (3 Bft)
15.03.2015 03:00 4,2 C 2,8 C 92 % 1026,5 hPa 0,0 l/m 0,00 h 0,00 h 0 W/m 17,3 km/h (3 Bft)
15.03.2015 04:00 4,2 C 2,8 C 92 % 1026,3 hPa 0,0 l/m 0,00 h 0,00 h 0 W/m 17,8 km/h (3 Bft)
15.03.2015 05:00 4,3 C 2,8 C 92 % 1026,2 hPa 0,0 l/m 0,00 h 0,00 h 0 W/m 16,2 km/h (3 Bft)
15.03.2015 06:00 4,4 C 3,0 C 92 % 1026,2 hPa 0,0 l/m 0,00 h 0,17 h 0 W/m 20,2 km/h (4 Bft)
15.03.2015 07:00 4,6 C 2,9 C 93 % 1026,5 hPa 0,2 l/m 0,00 h 0,83 h 13 W/m 19,9 km/h (4 Bft)
15.03.2015 08:00 4,6 C 3,4 C 94 % 1026,8 hPa 0,2 l/m 0,00 h 0,63 h 52 W/m 14,1 km/h (3 Bft)
15.03.2015 09:00 5,3 C 4,3 C 95 % 1026,5 hPa 0,0 l/m 0,03 h 0,10 h 132 W/m 20,2 km/h (4 Bft)
15.03.2015 10:00 6,1 C 5,0 C 92 % 1026,2 hPa 0,0 l/m 0,10 h 0,00 h 160 W/m 25,9 km/h (4 Bft)
15.03.2015 11:00 6,5 C 5,4 C 86 % 1025,9 hPa 0,0 l/m 0,00 h 0,00 h 134 W/m 24,4 km/h (4 Bft)
15.03.2015 12:00 7,2 C 6,5 C 83 % 1025,6 hPa 0,0 l/m 0,00 h 0,00 h 161 W/m 23,3 km/h (4 Bft)
15.03.2015 13:00 7,3 C 6,3 C 81 % 1025,1 hPa 0,0 l/m 0,00 h 0,03 h 132 W/m 22,1 km/h (4 Bft)
15.03.2015 14:00 7,4 C 6,4 C 81 % 1024,8 hPa 0,0 l/m 0,00 h 0,00 h 120 W/m 24,5 km/h (4 Bft)
15.03.2015 15:00 7,2 C 6,0 C 80 % 1024,7 hPa 0,0 l/m 0,00 h 0,00 h 87 W/m 25,0 km/h (4 Bft)
15.03.2015 16:00 6,9 C 5,6 C 81 % 1024,5 hPa 0,0 l/m 0,00 h 0,00 h 34 W/m 18,0 km/h (3 Bft)
15.03.2015 17:00 6,7 C 5,0 C 82 % 1024,4 hPa 0,0 l/m 0,00 h 0,07 h 16 W/m 19,9 km/h (4 Bft)
15.03.2015 18:00 6,3 C 4,6 C 84 % 1024,6 hPa 0,0 l/m 0,00 h 0,00 h 4 W/m 19,0 km/h (3 Bft)
15.03.2015 19:00 6,0 C 4,4 C 84 % 1024,7 hPa 0,0 l/m 0,00 h 0,00 h 0 W/m 21,1 km/h (4 Bft)
15.03.2015 20:00 5,9 C 4,4 C 85 % 1024,7 hPa 0,0 l/m 0,00 h 0,00 h 0 W/m 15,6 km/h (3 Bft)
15.03.2015 21:00 5,7 C 4,4 C 86 % 1024,6 hPa 0,0 l/m 0,00 h 0,00 h 0 W/m 18,2 km/h (3 Bft)
15.03.2015 22:00 5,5 C 4,1 C 87 % 1024,7 hPa 0,0 l/m 0,00 h 0,00 h 0 W/m 15,7 km/h (3 Bft)
15.03.2015 23:00 5,2 C 3,6 C 87 % 1024,4 hPa 0,0 l/m 0,00 h 0,00 h 0 W/m 14,1 km/h (3 Bft)
Min-Datum _ 12.03.15 12.03.15 13.03.15 13.03.15 - - - - 09.03.15
_ Min-Zeit 07:14 06:18 16:28 16:22 - - - - 18:36
Minimum _ -2,6 C -3,9 C 52 % 1022,5 hPa - - - - 0,0 km/h (0 Bft)
Max-Datum _ 12.03.15 12.03.15 10.03.15 11.03.15 10.03.15 09.03.15 09.03.15 10.03.15 13.03.15
_ Max-Zeit 15:12 14:38 10:04 09:12 07:08 13:20 04:24 13:10 22:42
Maximum _ 14,5 C 17,2 C 99 % 1032,2 hPa 0,4 l/m 0,03 h 0,03 h 709 W/m 37,7 km/h
O (5 Bft)
Durchschnitt _ 5,8 C 4,2 C 83 % 1027,0 hPa #2,0 l/m #35:47 h #6:25 h 185 W/m 11,2 km/h (2 Bft)
© 2015 W. Hausmann